sensor_id;sensor_type;location;lat;lon;timestamp;pressure;altitude;pressure_sealevel;temperature;humidity
22647;BME280;11490;42.726;23.268;2023-04-28T00:01:52;95463.13;;;7.24;68.12
22647;BME280;11490;42.726;23.268;2023-04-28T00:04:17;95458.50;;;7.06;67.31
22647;BME280;11490;42.726;23.268;2023-04-28T00:06:43;95461.13;;;7.13;68.41
22647;BME280;11490;42.726;23.268;2023-04-28T00:09:08;95454.44;;;6.97;69.14
22647;BME280;11490;42.726;23.268;2023-04-28T00:11:36;95453.66;;;6.90;72.82
22647;BME280;11490;42.726;23.268;2023-04-28T00:14:02;95449.34;;;7.02;69.34
22647;BME280;11490;42.726;23.268;2023-04-28T00:16:28;95461.16;;;7.06;70.94
22647;BME280;11490;42.726;23.268;2023-04-28T00:18:53;95462.69;;;6.76;70.91
22647;BME280;11490;42.726;23.268;2023-04-28T00:21:18;95444.09;;;6.89;70.31
22647;BME280;11490;42.726;23.268;2023-04-28T00:23:44;95441.69;;;6.74;71.66
22647;BME280;11490;42.726;23.268;2023-04-28T00:26:09;95451.44;;;6.93;70.80
22647;BME280;11490;42.726;23.268;2023-04-28T00:28:36;95457.59;;;6.81;69.81
22647;BME280;11490;42.726;23.268;2023-04-28T00:31:09;95460.38;;;6.99;69.62
22647;BME280;11490;42.726;23.268;2023-04-28T00:33:35;95463.41;;;7.09;69.61
22647;BME280;11490;42.726;23.268;2023-04-28T00:36:01;95460.56;;;7.04;70.49
22647;BME280;11490;42.726;23.268;2023-04-28T00:38:26;95462.88;;;6.81;71.59
22647;BME280;11490;42.726;23.268;2023-04-28T00:40:52;95471.03;;;6.86;70.33
22647;BME280;11490;42.726;23.268;2023-04-28T00:43:17;95467.00;;;6.64;70.77
22647;BME280;11490;42.726;23.268;2023-04-28T00:45:43;95463.69;;;6.75;70.29
22647;BME280;11490;42.726;23.268;2023-04-28T00:48:08;95462.31;;;6.66;69.80
22647;BME280;11490;42.726;23.268;2023-04-28T00:50:33;95471.06;;;6.73;69.62
22647;BME280;11490;42.726;23.268;2023-04-28T00:52:59;95478.81;;;6.68;71.16
22647;BME280;11490;42.726;23.268;2023-04-28T00:55:26;95470.25;;;6.52;71.21
22647;BME280;11490;42.726;23.268;2023-04-28T00:57:56;95468.22;;;6.54;69.83
22647;BME280;11490;42.726;23.268;2023-04-28T01:00:21;95478.41;;;6.44;71.57
22647;BME280;11490;42.726;23.268;2023-04-28T01:02:49;95478.25;;;6.26;72.29
22647;BME280;11490;42.726;23.268;2023-04-28T01:05:15;95484.13;;;6.54;70.62
22647;BME280;11490;42.726;23.268;2023-04-28T01:07:41;95489.03;;;6.25;72.31
22647;BME280;11490;42.726;23.268;2023-04-28T01:10:07;95478.03;;;6.47;72.20
22647;BME280;11490;42.726;23.268;2023-04-28T01:12:32;95488.63;;;6.21;73.80
22647;BME280;11490;42.726;23.268;2023-04-28T01:14:58;95475.38;;;6.21;74.65
22647;BME280;11490;42.726;23.268;2023-04-28T01:17:23;95493.09;;;6.47;73.40
22647;BME280;11490;42.726;23.268;2023-04-28T01:19:49;95482.91;;;6.50;71.92
22647;BME280;11490;42.726;23.268;2023-04-28T01:22:14;95485.38;;;6.32;74.05
22647;BME280;11490;42.726;23.268;2023-04-28T01:24:41;95483.34;;;6.34;71.37
22647;BME280;11490;42.726;23.268;2023-04-28T01:27:06;95483.13;;;6.29;73.21
22647;BME280;11490;42.726;23.268;2023-04-28T01:29:32;95495.34;;;6.10;74.31
22647;BME280;11490;42.726;23.268;2023-04-28T01:31:57;95482.94;;;6.11;74.90
22647;BME280;11490;42.726;23.268;2023-04-28T01:34:22;95484.53;;;6.12;73.15
22647;BME280;11490;42.726;23.268;2023-04-28T01:36:48;95474.38;;;6.15;73.55
22647;BME280;11490;42.726;23.268;2023-04-28T01:39:13;95473.16;;;6.18;71.51
22647;BME280;11490;42.726;23.268;2023-04-28T01:41:39;95480.09;;;6.19;73.74
22647;BME280;11490;42.726;23.268;2023-04-28T01:44:05;95480.06;;;6.06;73.24
22647;BME280;11490;42.726;23.268;2023-04-28T01:46:31;95478.63;;;6.23;72.44
22647;BME280;11490;42.726;23.268;2023-04-28T01:48:57;95481.09;;;6.18;70.95
22647;BME280;11490;42.726;23.268;2023-04-28T01:51:22;95480.88;;;6.00;71.47
22647;BME280;11490;42.726;23.268;2023-04-28T01:53:47;95495.56;;;6.09;71.85
22647;BME280;11490;42.726;23.268;2023-04-28T01:56:13;95480.06;;;5.93;72.33
22647;BME280;11490;42.726;23.268;2023-04-28T01:58:38;95487.38;;;5.91;71.97
22647;BME280;11490;42.726;23.268;2023-04-28T02:01:04;95476.75;;;5.77;71.76
22647;BME280;11490;42.726;23.268;2023-04-28T02:03:29;95476.31;;;5.74;72.90
22647;BME280;11490;42.726;23.268;2023-04-28T02:05:55;95486.53;;;5.84;72.35
22647;BME280;11490;42.726;23.268;2023-04-28T02:08:20;95484.06;;;5.75;72.58
22647;BME280;11490;42.726;23.268;2023-04-28T02:10:45;95487.91;;;5.73;73.76
22647;BME280;11490;42.726;23.268;2023-04-28T02:13:11;95484.69;;;5.77;72.29
22647;BME280;11490;42.726;23.268;2023-04-28T02:15:40;95498.38;;;5.88;72.22
22647;BME280;11490;42.726;23.268;2023-04-28T02:18:06;95496.72;;;5.87;73.50
22647;BME280;11490;42.726;23.268;2023-04-28T02:20:31;95497.78;;;5.92;71.91
22647;BME280;11490;42.726;23.268;2023-04-28T02:22:57;95497.91;;;5.77;73.04
22647;BME280;11490;42.726;23.268;2023-04-28T02:25:22;95496.28;;;5.76;74.44
22647;BME280;11490;42.726;23.268;2023-04-28T02:27:47;95499.31;;;5.73;72.50
22647;BME280;11490;42.726;23.268;2023-04-28T02:30:13;95497.91;;;5.64;73.11
22647;BME280;11490;42.726;23.268;2023-04-28T02:32:38;95499.94;;;5.75;72.83
22647;BME280;11490;42.726;23.268;2023-04-28T02:35:04;95505.59;;;5.66;74.48
22647;BME280;11490;42.726;23.268;2023-04-28T02:37:29;95506.88;;;5.76;72.19
22647;BME280;11490;42.726;23.268;2023-04-28T02:39:55;95503.69;;;5.88;73.08
22647;BME280;11490;42.726;23.268;2023-04-28T02:42:21;95521.59;;;5.99;73.00
22647;BME280;11490;42.726;23.268;2023-04-28T02:44:46;95509.31;;;5.85;73.22
22647;BME280;11490;42.726;23.268;2023-04-28T02:47:11;95510.97;;;5.86;73.08
22647;BME280;11490;42.726;23.268;2023-04-28T02:49:37;95511.00;;;5.92;75.25
22647;BME280;11490;42.726;23.268;2023-04-28T02:52:02;95518.69;;;5.80;74.80
22647;BME280;11490;42.726;23.268;2023-04-28T02:54:27;95510.19;;;5.98;71.96
22647;BME280;11490;42.726;23.268;2023-04-28T02:56:56;95523.22;;;6.00;73.41
22647;BME280;11490;42.726;23.268;2023-04-28T02:59:23;95526.88;;;5.99;72.86
22647;BME280;11490;42.726;23.268;2023-04-28T03:01:48;95524.44;;;5.97;74.97
22647;BME280;11490;42.726;23.268;2023-04-28T03:04:14;95520.59;;;6.00;72.12
22647;BME280;11490;42.726;23.268;2023-04-28T03:06:40;95516.94;;;6.01;71.92
22647;BME280;11490;42.726;23.268;2023-04-28T03:09:06;95529.69;;;5.77;74.29
22647;BME280;11490;42.726;23.268;2023-04-28T03:11:32;95532.13;;;5.86;71.52
22647;BME280;11490;42.726;23.268;2023-04-28T03:13:57;95524.38;;;5.77;72.06
22647;BME280;11490;42.726;23.268;2023-04-28T03:16:23;95537.81;;;5.76;72.54
22647;BME280;11490;42.726;23.268;2023-04-28T03:18:48;95533.50;;;5.68;73.24
22647;BME280;11490;42.726;23.268;2023-04-28T03:21:14;95531.19;;;5.46;73.33
22647;BME280;11490;42.726;23.268;2023-04-28T03:23:39;95534.03;;;5.44;73.74
22647;BME280;11490;42.726;23.268;2023-04-28T03:26:05;95548.75;;;5.66;73.84
22647;BME280;11490;42.726;23.268;2023-04-28T03:28:31;95542.97;;;5.43;76.41
22647;BME280;11490;42.726;23.268;2023-04-28T03:30:56;95551.66;;;5.71;72.92
22647;BME280;11490;42.726;23.268;2023-04-28T03:33:22;95543.38;;;5.88;72.24
22647;BME280;11490;42.726;23.268;2023-04-28T03:35:47;95572.03;;;5.84;72.73
22647;BME280;11490;42.726;23.268;2023-04-28T03:38:12;95561.59;;;5.69;71.48
22647;BME280;11490;42.726;23.268;2023-04-28T03:40:38;95561.44;;;5.77;72.87
22647;BME280;11490;42.726;23.268;2023-04-28T03:43:03;95569.84;;;5.88;71.60
22647;BME280;11490;42.726;23.268;2023-04-28T03:45:28;95577.38;;;5.91;72.71
22647;BME280;11490;42.726;23.268;2023-04-28T03:47:54;95573.88;;;5.84;72.09
22647;BME280;11490;42.726;23.268;2023-04-28T03:50:19;95586.69;;;5.80;72.11
22647;BME280;11490;42.726;23.268;2023-04-28T03:52:44;95585.81;;;5.66;74.42
22647;BME280;11490;42.726;23.268;2023-04-28T03:55:10;95568.72;;;5.62;72.70
22647;BME280;11490;42.726;23.268;2023-04-28T03:57:35;95591.50;;;5.57;73.54
22647;BME280;11490;42.726;23.268;2023-04-28T04:00:01;95586.28;;;5.83;70.61
22647;BME280;11490;42.726;23.268;2023-04-28T04:02:26;95590.38;;;5.86;71.33
22647;BME280;11490;42.726;23.268;2023-04-28T04:04:51;95596.16;;;5.96;71.07
22647;BME280;11490;42.726;23.268;2023-04-28T04:07:17;95595.72;;;5.92;72.91
22647;BME280;11490;42.726;23.268;2023-04-28T04:09:42;95601.25;;;6.04;72.39
22647;BME280;11490;42.726;23.268;2023-04-28T04:12:08;95587.50;;;5.80;71.35
22647;BME280;11490;42.726;23.268;2023-04-28T04:14:33;95596.16;;;5.96;70.62
22647;BME280;11490;42.726;23.268;2023-04-28T04:16:58;95606.97;;;5.66;70.57
22647;BME280;11490;42.726;23.268;2023-04-28T04:19:24;95615.88;;;5.93;72.74
22647;BME280;11490;42.726;23.268;2023-04-28T04:21:51;95611.22;;;5.95;72.26
22647;BME280;11490;42.726;23.268;2023-04-28T04:24:16;95614.06;;;6.07;71.04
22647;BME280;11490;42.726;23.268;2023-04-28T04:26:42;95627.16;;;6.28;70.91
22647;BME280;11490;42.726;23.268;2023-04-28T04:29:07;95624.75;;;6.33;70.28
22647;BME280;11490;42.726;23.268;2023-04-28T04:31:33;95620.66;;;6.37;70.90
22647;BME280;11490;42.726;23.268;2023-04-28T04:33:58;95623.13;;;6.45;71.41
22647;BME280;11490;42.726;23.268;2023-04-28T04:36:23;95613.78;;;6.56;69.39
22647;BME280;11490;42.726;23.268;2023-04-28T04:38:49;95630.69;;;6.81;68.70
22647;BME280;11490;42.726;23.268;2023-04-28T04:41:14;95627.06;;;6.89;68.52
22647;BME280;11490;42.726;23.268;2023-04-28T04:43:39;95635.81;;;6.96;68.91
22647;BME280;11490;42.726;23.268;2023-04-28T04:46:05;95632.13;;;6.97;68.68
22647;BME280;11490;42.726;23.268;2023-04-28T04:48:30;95624.38;;;7.02;68.13
22647;BME280;11490;42.726;23.268;2023-04-28T04:50:56;95630.09;;;6.99;68.44
22647;BME280;11490;42.726;23.268;2023-04-28T04:53:21;95625.59;;;6.93;69.71
22647;BME280;11490;42.726;23.268;2023-04-28T04:55:46;95629.25;;;7.05;68.86
22647;BME280;11490;42.726;23.268;2023-04-28T04:58:12;95643.13;;;7.20;69.45
22647;BME280;11490;42.726;23.268;2023-04-28T05:00:38;95651.31;;;7.12;69.27
22647;BME280;11490;42.726;23.268;2023-04-28T05:03:04;95651.69;;;7.42;68.00
22647;BME280;11490;42.726;23.268;2023-04-28T05:05:30;95644.53;;;7.36;68.88
22647;BME280;11490;42.726;23.268;2023-04-28T05:07:56;95647.56;;;7.46;68.30
22647;BME280;11490;42.726;23.268;2023-04-28T05:10:22;95654.09;;;7.57;68.22
22647;BME280;11490;42.726;23.268;2023-04-28T05:12:48;95657.28;;;7.85;67.42
22647;BME280;11490;42.726;23.268;2023-04-28T05:15:13;95660.09;;;7.90;67.80
22647;BME280;11490;42.726;23.268;2023-04-28T05:17:39;95658.69;;;7.94;67.75
22647;BME280;11490;42.726;23.268;2023-04-28T05:20:05;95654.94;;;8.08;67.08
22647;BME280;11490;42.726;23.268;2023-04-28T05:22:30;95652.69;;;8.05;65.56
22647;BME280;11490;42.726;23.268;2023-04-28T05:24:56;95654.59;;;8.43;65.62
22647;BME280;11490;42.726;23.268;2023-04-28T05:27:21;95657.69;;;8.71;64.91
22647;BME280;11490;42.726;23.268;2023-04-28T05:29:46;95663.09;;;8.90;63.90
22647;BME280;11490;42.726;23.268;2023-04-28T05:32:12;95664.72;;;8.91;64.45
22647;BME280;11490;42.726;23.268;2023-04-28T05:34:37;95646.81;;;8.79;63.95
22647;BME280;11490;42.726;23.268;2023-04-28T05:37:02;95640.78;;;8.91;62.75
22647;BME280;11490;42.726;23.268;2023-04-28T05:39:28;95649.63;;;9.09;62.38
22647;BME280;11490;42.726;23.268;2023-04-28T05:41:53;95651.06;;;9.12;63.54
22647;BME280;11490;42.726;23.268;2023-04-28T05:44:19;95655.28;;;9.44;62.20
22647;BME280;11490;42.726;23.268;2023-04-28T05:46:44;95650.34;;;9.66;62.89
22647;BME280;11490;42.726;23.268;2023-04-28T05:49:10;95659.44;;;9.58;62.21
22647;BME280;11490;42.726;23.268;2023-04-28T05:51:35;95640.88;;;9.70;60.69
22647;BME280;11490;42.726;23.268;2023-04-28T05:54:02;95660.91;;;10.09;60.70
22647;BME280;11490;42.726;23.268;2023-04-28T05:56:27;95644.63;;;9.99;61.41
22647;BME280;11490;42.726;23.268;2023-04-28T05:58:53;95647.16;;;10.30;60.70
22647;BME280;11490;42.726;23.268;2023-04-28T06:01:18;95665.97;;;10.65;58.71
22647;BME280;11490;42.726;23.268;2023-04-28T06:03:44;95664.03;;;10.84;58.00
22647;BME280;11490;42.726;23.268;2023-04-28T06:06:10;95654.28;;;11.19;55.86
22647;BME280;11490;42.726;23.268;2023-04-28T06:08:35;95667.38;;;11.09;54.51
22647;BME280;11490;42.726;23.268;2023-04-28T06:11:01;95667.75;;;11.48;55.07
22647;BME280;11490;42.726;23.268;2023-04-28T06:13:26;95660.47;;;11.78;53.95
22647;BME280;11490;42.726;23.268;2023-04-28T06:15:52;95641.22;;;12.16;54.01
22647;BME280;11490;42.726;23.268;2023-04-28T06:18:17;95652.09;;;12.38;52.81
22647;BME280;11490;42.726;23.268;2023-04-28T06:20:45;95640.63;;;12.54;52.12
22647;BME280;11490;42.726;23.268;2023-04-28T06:23:11;95642.13;;;13.07;51.40
22647;BME280;11490;42.726;23.268;2023-04-28T06:25:36;95653.56;;;12.74;50.43
22647;BME280;11490;42.726;23.268;2023-04-28T06:28:02;95662.63;;;12.85;51.61
22647;BME280;11490;42.726;23.268;2023-04-28T06:30:27;95653.00;;;13.00;50.61
22647;BME280;11490;42.726;23.268;2023-04-28T06:32:53;95673.75;;;13.38;50.11
22647;BME280;11490;42.726;23.268;2023-04-28T06:35:20;95642.56;;;12.87;50.45
22647;BME280;11490;42.726;23.268;2023-04-28T06:37:46;95647.28;;;12.97;51.89
22647;BME280;11490;42.726;23.268;2023-04-28T06:40:11;95654.41;;;13.20;48.21
22647;BME280;11490;42.726;23.268;2023-04-28T06:42:37;95644.25;;;13.22;50.37
22647;BME280;11490;42.726;23.268;2023-04-28T06:48:21;95662.22;;;12.93;51.07
22647;BME280;11490;42.726;23.268;2023-04-28T06:50:49;95647.59;;;12.84;49.77
22647;BME280;11490;42.726;23.268;2023-04-28T06:53:14;95653.78;;;13.01;49.91
22647;BME280;11490;42.726;23.268;2023-04-28T06:55:40;95645.31;;;12.76;49.55
22647;BME280;11490;42.726;23.268;2023-04-28T06:58:06;95632.41;;;12.44;49.81
22647;BME280;11490;42.726;23.268;2023-04-28T07:00:31;95625.72;;;12.30;48.26
22647;BME280;11490;42.726;23.268;2023-04-28T07:02:57;95634.03;;;12.73;47.18
22647;BME280;11490;42.726;23.268;2023-04-28T07:05:22;95635.94;;;12.90;49.45
22647;BME280;11490;42.726;23.268;2023-04-28T07:07:47;95657.41;;;12.95;47.27
22647;BME280;11490;42.726;23.268;2023-04-28T07:10:13;95660.75;;;12.85;49.29
22647;BME280;11490;42.726;23.268;2023-04-28T07:12:39;95654.75;;;13.23;49.14
22647;BME280;11490;42.726;23.268;2023-04-28T07:15:06;95658.84;;;13.47;47.93
22647;BME280;11490;42.726;23.268;2023-04-28T07:17:31;95635.13;;;13.06;46.04
22647;BME280;11490;42.726;23.268;2023-04-28T07:19:57;95635.94;;;12.90;45.74
22647;BME280;11490;42.726;23.268;2023-04-28T07:22:22;95653.03;;;13.34;46.64
22647;BME280;11490;42.726;23.268;2023-04-28T07:24:48;95636.00;;;13.23;46.07
22647;BME280;11490;42.726;23.268;2023-04-28T07:27:13;95623.09;;;13.08;47.15
22647;BME280;11490;42.726;23.268;2023-04-28T07:29:39;95616.66;;;13.55;47.00
22647;BME280;11490;42.726;23.268;2023-04-28T07:32:04;95628.44;;;13.92;42.41
22647;BME280;11490;42.726;23.268;2023-04-28T07:34:32;95648.69;;;13.83;41.50
22647;BME280;11490;42.726;23.268;2023-04-28T07:36:57;95643.44;;;13.55;43.39
22647;BME280;11490;42.726;23.268;2023-04-28T07:39:23;95656.69;;;14.21;44.64
22647;BME280;11490;42.726;23.268;2023-04-28T07:41:50;95644.41;;;13.65;43.64
22647;BME280;11490;42.726;23.268;2023-04-28T07:44:16;95642.38;;;13.94;41.67
22647;BME280;11490;42.726;23.268;2023-04-28T07:46:41;95641.19;;;14.23;40.13
22647;BME280;11490;42.726;23.268;2023-04-28T07:49:07;95643.91;;;14.29;41.15
22647;BME280;11490;42.726;23.268;2023-04-28T07:51:36;95629.69;;;14.06;40.93
22647;BME280;11490;42.726;23.268;2023-04-28T07:54:02;95627.53;;;14.47;44.69
22647;BME280;11490;42.726;23.268;2023-04-28T07:56:28;95626.09;;;14.66;42.54
22647;BME280;11490;42.726;23.268;2023-04-28T07:58:54;95643.09;;;14.98;43.09
22647;BME280;11490;42.726;23.268;2023-04-28T08:01:21;95641.84;;;15.11;39.09
22647;BME280;11490;42.726;23.268;2023-04-28T08:03:46;95651.50;;;14.80;41.02
22647;BME280;11490;42.726;23.268;2023-04-28T08:06:12;95652.53;;;15.33;41.04
22647;BME280;11490;42.726;23.268;2023-04-28T08:08:38;95647.53;;;15.15;38.73
22647;BME280;11490;42.726;23.268;2023-04-28T08:11:03;95640.66;;;15.29;38.40
22647;BME280;11490;42.726;23.268;2023-04-28T08:13:29;95644.03;;;14.87;39.79
22647;BME280;11490;42.726;23.268;2023-04-28T08:15:54;95650.72;;;15.70;39.40
22647;BME280;11490;42.726;23.268;2023-04-28T08:18:21;95645.69;;;15.84;38.28
22647;BME280;11490;42.726;23.268;2023-04-28T08:20:47;95650.34;;;16.04;38.67
22647;BME280;11490;42.726;23.268;2023-04-28T08:23:12;95646.81;;;15.24;37.74
22647;BME280;11490;42.726;23.268;2023-04-28T08:25:37;95632.38;;;15.67;39.31
22647;BME280;11490;42.726;23.268;2023-04-28T08:28:03;95624.81;;;15.59;36.52
22647;BME280;11490;42.726;23.268;2023-04-28T08:30:30;95641.13;;;15.85;40.05
22647;BME280;11490;42.726;23.268;2023-04-28T08:32:56;95635.25;;;15.98;35.71
22647;BME280;11490;42.726;23.268;2023-04-28T08:35:21;95649.75;;;15.87;36.09
22647;BME280;11490;42.726;23.268;2023-04-28T08:37:47;95628.31;;;16.07;39.95
22647;BME280;11490;42.726;23.268;2023-04-28T08:40:13;95649.09;;;16.79;36.53
22647;BME280;11490;42.726;23.268;2023-04-28T08:42:40;95643.72;;;16.79;37.54
22647;BME280;11490;42.726;23.268;2023-04-28T08:45:06;95647.25;;;17.00;37.79
22647;BME280;11490;42.726;23.268;2023-04-28T08:47:36;95648.59;;;17.02;36.64
22647;BME280;11490;42.726;23.268;2023-04-28T08:50:10;95621.41;;;17.24;35.57
22647;BME280;11490;42.726;23.268;2023-04-28T08:52:40;95637.59;;;17.34;35.18
22647;BME280;11490;42.726;23.268;2023-04-28T08:55:08;95630.03;;;17.56;36.35
22647;BME280;11490;42.726;23.268;2023-04-28T08:57:37;95635.69;;;17.75;35.28
22647;BME280;11490;42.726;23.268;2023-04-28T09:00:04;95615.22;;;17.18;35.42
22647;BME280;11490;42.726;23.268;2023-04-28T09:02:29;95641.06;;;17.19;35.57
22647;BME280;11490;42.726;23.268;2023-04-28T09:04:55;95614.66;;;17.26;33.88
22647;BME280;11490;42.726;23.268;2023-04-28T09:07:20;95631.34;;;17.59;34.93
22647;BME280;11490;42.726;23.268;2023-04-28T09:09:46;95611.13;;;17.51;33.03
22647;BME280;11490;42.726;23.268;2023-04-28T09:12:11;95609.00;;;17.28;33.32
22647;BME280;11490;42.726;23.268;2023-04-28T09:14:37;95597.94;;;16.94;32.01
22647;BME280;11490;42.726;23.268;2023-04-28T09:17:11;95590.91;;;16.10;38.01
22647;BME280;11490;42.726;23.268;2023-04-28T09:19:40;95609.00;;;17.33;36.61
22647;BME280;11490;42.726;23.268;2023-04-28T09:22:09;95602.25;;;17.76;36.28
22647;BME280;11490;42.726;23.268;2023-04-28T09:24:39;95609.16;;;18.18;34.25
22647;BME280;11490;42.726;23.268;2023-04-28T09:27:06;95594.09;;;17.91;33.09
22647;BME280;11490;42.726;23.268;2023-04-28T09:29:35;95593.56;;;17.94;34.35
22647;BME280;11490;42.726;23.268;2023-04-28T09:32:16;95609.22;;;18.02;36.13
22647;BME280;11490;42.726;23.268;2023-04-28T09:34:47;95608.03;;;18.24;32.63
22647;BME280;11490;42.726;23.268;2023-04-28T09:37:17;95594.66;;;17.58;32.89
22647;BME280;11490;42.726;23.268;2023-04-28T09:39:45;95581.19;;;17.88;37.12
22647;BME280;11490;42.726;23.268;2023-04-28T09:42:30;95596.16;;;18.20;35.17
22647;BME280;11490;42.726;23.268;2023-04-28T09:44:56;95583.06;;;18.52;33.11
22647;BME280;11490;42.726;23.268;2023-04-28T09:47:22;95569.97;;;18.79;33.62
22647;BME280;11490;42.726;23.268;2023-04-28T09:49:58;95591.41;;;19.05;30.98
22647;BME280;11490;42.726;23.268;2023-04-28T09:52:25;95573.19;;;18.87;33.21
22647;BME280;11490;42.726;23.268;2023-04-28T09:54:52;95581.41;;;19.39;32.03
22647;BME280;11490;42.726;23.268;2023-04-28T09:57:18;95564.47;;;18.95;32.76
22647;BME280;11490;42.726;23.268;2023-04-28T09:59:50;95578.09;;;19.13;32.74
22647;BME280;11490;42.726;23.268;2023-04-28T10:02:17;95566.22;;;18.75;34.35
22647;BME280;11490;42.726;23.268;2023-04-28T10:04:44;95558.97;;;19.05;31.36
22647;BME280;11490;42.726;23.268;2023-04-28T10:07:15;95548.59;;;18.34;29.75
22647;BME280;11490;42.726;23.268;2023-04-28T10:09:42;95544.75;;;18.45;29.34
22647;BME280;11490;42.726;23.268;2023-04-28T10:12:21;95545.38;;;18.81;32.14
22647;BME280;11490;42.726;23.268;2023-04-28T10:14:48;95542.25;;;19.32;30.68
22647;BME280;11490;42.726;23.268;2023-04-28T10:17:15;95540.00;;;19.73;29.94
22647;BME280;11490;42.726;23.268;2023-04-28T10:19:43;95558.38;;;19.76;29.93
22647;BME280;11490;42.726;23.268;2023-04-28T10:25:16;95552.59;;;20.06;29.62
22647;BME280;11490;42.726;23.268;2023-04-28T10:27:47;95517.03;;;19.94;29.69
22647;BME280;11490;42.726;23.268;2023-04-28T10:30:18;95531.75;;;19.83;30.13
22647;BME280;11490;42.726;23.268;2023-04-28T10:32:45;95520.53;;;19.71;31.19
22647;BME280;11490;42.726;23.268;2023-04-28T10:38:02;95544.03;;;19.99;29.87
22647;BME280;11490;42.726;23.268;2023-04-28T10:40:31;95535.00;;;19.85;29.46
22647;BME280;11490;42.726;23.268;2023-04-28T10:42:57;95539.69;;;19.98;31.15
22647;BME280;11490;42.726;23.268;2023-04-28T10:48:16;95513.13;;;19.23;29.96
22647;BME280;11490;42.726;23.268;2023-04-28T10:58:38;95471.59;;;19.38;32.23
22647;BME280;11490;42.726;23.268;2023-04-28T11:01:26;95484.84;;;19.11;29.91
22647;BME280;11490;42.726;23.268;2023-04-28T11:03:53;95507.50;;;19.20;31.27
22647;BME280;11490;42.726;23.268;2023-04-28T11:08:54;95498.03;;;19.46;30.15
22647;BME280;11490;42.726;23.268;2023-04-28T11:11:29;95482.88;;;19.74;30.16
22647;BME280;11490;42.726;23.268;2023-04-28T11:19:30;95459.88;;;19.95;29.36
22647;BME280;11490;42.726;23.268;2023-04-28T11:21:57;95482.66;;;19.71;29.41
22647;BME280;11490;42.726;23.268;2023-04-28T11:24:23;95469.22;;;19.60;29.10
22647;BME280;11490;42.726;23.268;2023-04-28T11:26:56;95472.28;;;19.78;30.55
22647;BME280;11490;42.726;23.268;2023-04-28T11:29:36;95469.03;;;19.76;30.89
22647;BME280;11490;42.726;23.268;2023-04-28T11:32:06;95475.22;;;19.57;32.73
22647;BME280;11490;42.726;23.268;2023-04-28T11:34:32;95461.81;;;19.42;30.65
22647;BME280;11490;42.726;23.268;2023-04-28T11:36:58;95453.03;;;19.03;29.21
22647;BME280;11490;42.726;23.268;2023-04-28T11:39:33;95459.00;;;19.57;30.09
22647;BME280;11490;42.726;23.268;2023-04-28T11:42:01;95457.22;;;19.90;31.71
22647;BME280;11490;42.726;23.268;2023-04-28T11:44:29;95434.31;;;19.35;29.87
22647;BME280;11490;42.726;23.268;2023-04-28T11:46:57;95425.19;;;19.02;31.71
22647;BME280;11490;42.726;23.268;2023-04-28T11:49:26;95452.81;;;18.60;29.75
22647;BME280;11490;42.726;23.268;2023-04-28T11:52:04;95427.28;;;18.42;31.91
22647;BME280;11490;42.726;23.268;2023-04-28T11:54:30;95420.59;;;18.69;30.92
22647;BME280;11490;42.726;23.268;2023-04-28T11:56:57;95445.97;;;18.34;30.74
22647;BME280;11490;42.726;23.268;2023-04-28T11:59:24;95442.19;;;18.35;31.02
22647;BME280;11490;42.726;23.268;2023-04-28T12:01:52;95430.56;;;17.90;30.86
22647;BME280;11490;42.726;23.268;2023-04-28T12:04:35;95436.34;;;18.62;31.86
22647;BME280;11490;42.726;23.268;2023-04-28T12:07:11;95420.06;;;18.72;32.77
22647;BME280;11490;42.726;23.268;2023-04-28T12:09:42;95412.16;;;18.75;33.27
22647;BME280;11490;42.726;23.268;2023-04-28T12:12:27;95404.22;;;18.55;31.79
22647;BME280;11490;42.726;23.268;2023-04-28T12:15:01;95412.84;;;18.62;32.35
22647;BME280;11490;42.726;23.268;2023-04-28T12:17:32;95412.69;;;17.99;30.80
22647;BME280;11490;42.726;23.268;2023-04-28T12:20:00;95391.06;;;18.10;33.06
22647;BME280;11490;42.726;23.268;2023-04-28T12:22:26;95398.56;;;18.18;34.29
22647;BME280;11490;42.726;23.268;2023-04-28T12:25:05;95407.03;;;18.40;33.11
22647;BME280;11490;42.726;23.268;2023-04-28T12:27:32;95420.97;;;18.52;32.90
22647;BME280;11490;42.726;23.268;2023-04-28T12:29:58;95407.34;;;17.89;32.82
22647;BME280;11490;42.726;23.268;2023-04-28T12:32:43;95407.84;;;18.01;34.20
22647;BME280;11490;42.726;23.268;2023-04-28T12:35:12;95390.66;;;17.87;34.92
22647;BME280;11490;42.726;23.268;2023-04-28T12:37:37;95402.03;;;17.79;34.53
22647;BME280;11490;42.726;23.268;2023-04-28T12:40:04;95377.38;;;17.37;32.14
22647;BME280;11490;42.726;23.268;2023-04-28T12:42:30;95399.44;;;17.49;32.73
22647;BME280;11490;42.726;23.268;2023-04-28T12:44:56;95385.91;;;17.59;36.77
22647;BME280;11490;42.726;23.268;2023-04-28T12:47:25;95357.06;;;17.54;34.64
22647;BME280;11490;42.726;23.268;2023-04-28T12:49:50;95364.94;;;17.46;33.38
22647;BME280;11490;42.726;23.268;2023-04-28T12:52:20;95382.06;;;17.80;33.78
22647;BME280;11490;42.726;23.268;2023-04-28T12:54:46;95367.78;;;17.80;34.02
22647;BME280;11490;42.726;23.268;2023-04-28T12:57:12;95373.31;;;17.98;36.42
22647;BME280;11490;42.726;23.268;2023-04-28T12:59:38;95357.78;;;17.80;35.64
22647;BME280;11490;42.726;23.268;2023-04-28T13:02:03;95344.28;;;17.80;35.16
22647;BME280;11490;42.726;23.268;2023-04-28T13:04:29;95359.94;;;17.73;34.12
22647;BME280;11490;42.726;23.268;2023-04-28T13:06:56;95336.75;;;17.77;34.45
22647;BME280;11490;42.726;23.268;2023-04-28T13:09:23;95347.09;;;17.55;33.63
22647;BME280;11490;42.726;23.268;2023-04-28T13:11:49;95342.47;;;17.71;34.13
22647;BME280;11490;42.726;23.268;2023-04-28T13:14:15;95360.75;;;17.74;33.27
22647;BME280;11490;42.726;23.268;2023-04-28T13:16:40;95319.84;;;17.51;34.15
22647;BME280;11490;42.726;23.268;2023-04-28T13:19:06;95318.78;;;17.57;34.09
22647;BME280;11490;42.726;23.268;2023-04-28T13:21:38;95320.66;;;17.52;34.98